createdAt,value
2019-06-27T00:00:01.483Z,85.21
2019-06-27T00:01:22.445Z,84.86
2019-06-27T00:02:01.437Z,85.35
2019-06-27T00:03:01.415Z,85.11
2019-06-27T00:04:01.409Z,85.30
2019-06-27T00:05:01.390Z,85.30
2019-06-27T00:06:01.379Z,85.21
2019-06-27T00:07:22.350Z,85.15
2019-06-27T00:08:01.355Z,85.40
2019-06-27T00:09:01.339Z,84.82
2019-06-27T00:10:01.322Z,84.91
2019-06-27T00:11:01.291Z,85.40
2019-06-27T00:12:01.284Z,85.11
2019-06-27T00:13:22.273Z,85.30
2019-06-27T00:14:01.248Z,85.11
2019-06-27T00:15:01.251Z,85.40
2019-06-27T00:16:01.213Z,85.30
2019-06-27T00:17:01.206Z,85.21
2019-06-27T00:18:01.188Z,84.72
2019-06-27T00:19:22.188Z,84.63
2019-06-27T00:20:01.170Z,84.24
2019-06-27T00:21:01.136Z,84.19
2019-06-27T00:22:01.152Z,84.05
2019-06-27T00:23:01.105Z,85.15
2019-06-27T00:24:01.094Z,84.24
2019-06-27T00:25:22.126Z,85.11
2019-06-27T00:26:01.059Z,84.91
2019-06-27T00:27:01.043Z,84.91
2019-06-27T00:28:01.042Z,84.63
2019-06-27T00:29:01.017Z,84.82
2019-06-27T00:30:01.005Z,84.43
2019-06-27T00:31:22.048Z,84.82
2019-06-27T00:32:00.967Z,84.72
2019-06-27T00:33:00.943Z,84.72
2019-06-27T00:34:00.933Z,84.53
2019-06-27T00:35:00.919Z,84.05
2019-06-27T00:36:00.900Z,84.33
2019-06-27T00:37:21.902Z,84.14
2019-06-27T00:38:00.879Z,84.43
2019-06-27T00:39:00.859Z,84.05
2019-06-27T00:40:00.864Z,84.05
2019-06-27T00:41:00.836Z,83.95
2019-06-27T00:42:00.816Z,84.63
2019-06-27T00:43:21.866Z,85.01
2019-06-27T00:44:00.783Z,85.40
2019-06-27T00:45:00.757Z,85.11
2019-06-27T00:46:00.749Z,85.26
2019-06-27T00:47:00.721Z,85.74
2019-06-27T00:48:00.718Z,86.13
2019-06-27T00:49:21.701Z,85.74
2019-06-27T00:50:00.701Z,85.94
2019-06-27T00:51:00.668Z,86.42
2019-06-27T00:52:00.650Z,86.80
2019-06-27T00:53:00.628Z,87.19
2019-06-27T00:54:00.627Z,86.71
2019-06-27T00:55:21.620Z,87.34
2019-06-27T00:56:00.590Z,87.24
2019-06-27T00:57:13.358Z,87.34
2019-06-27T00:58:00.576Z,87.73
2019-06-27T00:59:00.539Z,87.05
2019-06-27T01:00:00.519Z,87.73
2019-06-27T01:01:21.513Z,88.02
2019-06-27T01:02:00.501Z,87.44
2019-06-27T01:03:00.489Z,87.34
2019-06-27T01:04:00.463Z,88.21
2019-06-27T01:05:00.438Z,87.82
2019-06-27T01:06:00.449Z,88.02
2019-06-27T01:07:21.430Z,87.92
2019-06-27T01:08:00.389Z,88.02
2019-06-27T01:09:00.377Z,87.92
2019-06-27T01:10:01.278Z,88.31
2019-06-27T01:11:00.360Z,88.11
2019-06-27T01:12:00.324Z,88.21
2019-06-27T01:13:21.323Z,87.63
2019-06-27T01:14:00.299Z,88.02
2019-06-27T01:15:00.300Z,87.92
2019-06-27T01:16:00.265Z,88.17
2019-06-27T01:17:00.319Z,88.50
2019-06-27T01:18:00.241Z,88.93
2019-06-27T01:19:21.224Z,88.93
2019-06-27T01:20:00.305Z,89.23
2019-06-27T01:21:00.189Z,89.51
2019-06-27T01:22:00.165Z,90.38
2019-06-27T01:23:00.210Z,90.38
2019-06-27T01:24:00.187Z,90.09
2019-06-27T01:25:21.138Z,90.53
2019-06-27T01:26:00.125Z,90.72
2019-06-27T01:27:00.090Z,90.72
2019-06-27T01:28:00.068Z,91.60
2019-06-27T01:29:00.085Z,91.69
2019-06-27T01:30:00.043Z,91.78
2019-06-27T01:31:21.048Z,92.08
2019-06-27T01:32:00.027Z,92.85
2019-06-27T01:32:59.999Z,92.17
2019-06-27T01:34:00.011Z,92.51
2019-06-27T01:34:59.975Z,92.51
2019-06-27T01:36:00.728Z,92.13
2019-06-27T01:37:21.697Z,92.99
2019-06-27T01:37:59.905Z,92.99
2019-06-27T01:38:59.893Z,93.09
2019-06-27T01:39:59.864Z,92.80
2019-06-27T01:40:59.849Z,92.99
2019-06-27T01:41:59.835Z,92.90
2019-06-27T01:43:20.833Z,92.71
2019-06-27T01:43:59.809Z,92.80
2019-06-27T01:44:59.789Z,92.80
2019-06-27T01:45:59.770Z,92.99
2019-06-27T01:46:59.763Z,92.71
2019-06-27T01:47:59.741Z,92.80
2019-06-27T01:49:20.751Z,93.09
2019-06-27T01:49:59.762Z,92.13
2019-06-27T01:50:59.700Z,92.13
2019-06-27T01:51:59.691Z,91.45
2019-06-27T01:52:59.665Z,91.45
2019-06-27T01:53:59.645Z,91.64
2019-06-27T01:55:20.628Z,91.55
2019-06-27T01:55:59.632Z,92.32
2019-06-27T01:56:59.592Z,90.68
2019-06-27T01:57:59.568Z,91.20
2019-06-27T01:58:59.556Z,91.45
2019-06-27T01:59:59.578Z,90.97
2019-06-27T02:01:20.538Z,91.16
2019-06-27T02:01:59.532Z,91.93
2019-06-27T02:02:59.487Z,91.93
2019-06-27T02:03:59.491Z,91.83
2019-06-27T02:04:59.460Z,92.51
2019-06-27T02:05:59.449Z,92.22
2019-06-27T02:07:20.437Z,92.22
2019-06-27T02:07:59.409Z,92.99
2019-06-27T02:08:59.673Z,92.99
2019-06-27T02:09:59.363Z,92.32
2019-06-27T02:10:59.362Z,92.80
2019-06-27T02:11:59.329Z,92.51
2019-06-27T02:13:20.344Z,92.61
2019-06-27T02:13:59.305Z,92.61
2019-06-27T02:14:59.300Z,92.22
2019-06-27T02:15:59.295Z,92.80
2019-06-27T02:16:59.253Z,92.51
2019-06-27T02:17:59.250Z,92.71
2019-06-27T02:19:20.226Z,93.09
2019-06-27T02:19:59.197Z,93.19
2019-06-27T02:20:59.194Z,93.96
2019-06-27T02:21:59.164Z,93.76
2019-06-27T02:22:59.169Z,93.28
2019-06-27T02:23:59.153Z,93.48
2019-06-27T02:25:20.120Z,93.76
2019-06-27T02:25:59.095Z,93.86
2019-06-27T02:26:59.107Z,93.66
2019-06-27T02:28:03.634Z,93.86
2019-06-27T02:28:59.059Z,94.63
2019-06-27T02:29:59.046Z,94.73
2019-06-27T02:31:20.025Z,94.34
2019-06-27T02:31:59.000Z,95.26
2019-06-27T02:32:59.365Z,94.68
2019-06-27T02:33:58.961Z,94.49
2019-06-27T02:34:58.943Z,93.91
2019-06-27T02:35:58.934Z,92.27
2019-06-27T02:37:19.921Z,91.99
2019-06-27T02:37:58.893Z,92.27
2019-06-27T02:38:58.879Z,91.50
2019-06-27T02:39:58.871Z,91.02
2019-06-27T02:40:59.167Z,91.02
2019-06-27T02:41:58.825Z,90.44
2019-06-27T02:43:19.823Z,90.54
2019-06-27T02:43:58.806Z,89.58
2019-06-27T02:44:58.801Z,88.81
2019-06-27T02:45:58.783Z,88.61
2019-06-27T02:46:58.753Z,88.28
2019-06-27T02:47:58.716Z,88.47
2019-06-27T02:49:19.728Z,88.18
2019-06-27T02:49:58.684Z,87.41
2019-06-27T02:50:58.682Z,87.46
2019-06-27T02:51:58.660Z,86.78
2019-06-27T02:52:58.644Z,86.93
2019-06-27T02:53:59.963Z,86.69
2019-06-27T02:55:19.616Z,86.40
2019-06-27T02:55:58.631Z,86.45
2019-06-27T02:56:58.563Z,85.87
2019-06-27T02:57:58.570Z,85.20
2019-06-27T02:58:58.534Z,85.10
2019-06-27T02:59:58.514Z,84.23
2019-06-27T03:01:19.506Z,83.95
2019-06-27T03:01:58.489Z,84.05
2019-06-27T03:02:58.477Z,84.81
2019-06-27T03:03:58.475Z,83.47
2019-06-27T03:04:58.451Z,80.96
2019-06-27T03:05:58.419Z,80.77
2019-06-27T03:07:19.403Z,79.90
2019-06-27T03:07:58.375Z,80.00
2019-06-27T03:08:58.378Z,80.04
2019-06-27T03:09:58.388Z,80.33
2019-06-27T03:10:58.331Z,80.23
2019-06-27T03:12:00.311Z,80.10
2019-06-27T03:13:19.319Z,80.00
2019-06-27T03:13:58.278Z,79.71
2019-06-27T03:14:58.247Z,80.00
2019-06-27T03:15:58.250Z,80.87
2019-06-27T03:16:58.221Z,80.77
2019-06-27T03:17:58.210Z,80.68
2019-06-27T03:19:19.191Z,80.96
2019-06-27T03:19:58.171Z,80.68
2019-06-27T03:20:58.163Z,80.48
2019-06-27T03:21:58.133Z,81.12
2019-06-27T03:22:58.135Z,80.73
2019-06-27T03:23:58.102Z,80.63
2019-06-27T03:25:19.076Z,80.83
2019-06-27T03:25:58.080Z,81.12
2019-06-27T03:26:58.672Z,80.92
2019-06-27T03:27:58.022Z,80.92
2019-06-27T03:28:58.009Z,81.30
2019-06-27T03:29:58.012Z,80.50
2019-06-27T03:31:18.975Z,80.92
2019-06-27T03:31:57.962Z,81.12
2019-06-27T03:32:57.936Z,81.56
2019-06-27T03:33:57.941Z,81.65
2019-06-27T03:34:57.915Z,81.65
2019-06-27T03:35:57.906Z,81.75
2019-06-27T03:37:18.873Z,82.04
2019-06-27T03:37:57.853Z,82.14
2019-06-27T03:38:57.830Z,83.09
2019-06-27T03:39:57.911Z,82.86
2019-06-27T03:40:57.803Z,83.83
2019-06-27T03:41:57.788Z,83.73
2019-06-27T03:43:18.772Z,84.30
2019-06-27T03:43:57.749Z,84.21
2019-06-27T03:44:57.729Z,84.50
2019-06-27T03:45:57.706Z,83.83
2019-06-27T03:46:57.700Z,83.53
2019-06-27T03:47:57.682Z,82.67
2019-06-27T03:49:18.659Z,82.76
2019-06-27T03:49:57.655Z,82.19
2019-06-27T03:50:57.614Z,81.42
2019-06-27T03:51:57.601Z,81.13
2019-06-27T03:52:57.574Z,80.88
2019-06-27T03:53:57.567Z,81.27
2019-06-27T03:55:18.564Z,80.94
2019-06-27T03:55:57.521Z,80.50
2019-06-27T03:56:57.504Z,81.07
2019-06-27T03:57:57.485Z,81.07
2019-06-27T03:59:11.299Z,79.25
2019-06-27T03:59:57.458Z,78.96
2019-06-27T04:01:18.446Z,77.90
2019-06-27T04:01:57.422Z,78.00
2019-06-27T04:02:57.420Z,78.38
2019-06-27T04:03:57.390Z,77.33
2019-06-27T04:04:57.371Z,76.75
2019-06-27T04:05:57.351Z,75.05
2019-06-27T04:07:18.345Z,75.21
2019-06-27T04:07:57.323Z,74.76
2019-06-27T04:08:57.301Z,74.19
2019-06-27T04:09:57.284Z,74.76
2019-06-27T04:10:57.281Z,73.51
2019-06-27T04:11:57.279Z,72.74
2019-06-27T04:13:18.227Z,72.74
2019-06-27T04:13:57.214Z,71.59
2019-06-27T04:14:57.189Z,71.59
2019-06-27T04:15:57.208Z,71.34
2019-06-27T04:16:57.172Z,70.56
2019-06-27T04:17:57.132Z,70.66
2019-06-27T04:19:18.129Z,69.99
2019-06-27T04:19:57.110Z,70.37
2019-06-27T04:20:57.103Z,70.28
2019-06-27T04:21:57.070Z,70.37
2019-06-27T04:22:57.061Z,69.51
2019-06-27T04:23:57.037Z,70.18
2019-06-27T04:25:18.025Z,69.41
2019-06-27T04:25:57.009Z,69.89
2019-06-27T04:26:56.992Z,70.09
2019-06-27T04:27:59.885Z,69.12
2019-06-27T04:28:56.960Z,68.54
2019-06-27T04:29:56.968Z,68.44
2019-06-27T04:31:17.930Z,67.77
2019-06-27T04:31:56.914Z,68.16
2019-06-27T04:32:56.878Z,67.87
2019-06-27T04:33:56.882Z,67.68
2019-06-27T04:34:56.869Z,66.62
2019-06-27T04:35:56.835Z,66.14
2019-06-27T04:37:17.821Z,65.56
2019-06-27T04:37:56.796Z,64.40
2019-06-27T04:38:56.796Z,64.69
2019-06-27T04:39:56.767Z,64.12
2019-06-27T04:40:56.746Z,65.27
2019-06-27T04:41:56.752Z,64.31
2019-06-27T04:43:17.732Z,63.73
2019-06-27T04:43:56.698Z,63.47
2019-06-27T04:44:56.699Z,63.67
2019-06-27T04:45:56.671Z,63.67
2019-06-27T04:46:56.648Z,62.22
2019-06-27T04:47:56.643Z,62.41
2019-06-27T04:49:17.619Z,62.51
2019-06-27T04:49:56.596Z,62.60
2019-06-27T04:50:56.577Z,63.09
2019-06-27T04:51:56.559Z,62.12
2019-06-27T04:52:56.552Z,61.25
2019-06-27T04:53:56.525Z,62.41
2019-06-27T04:55:17.523Z,61.96
2019-06-27T04:55:56.538Z,61.38
2019-06-27T04:56:56.494Z,61.38
2019-06-27T04:57:56.474Z,61.38
2019-06-27T04:58:56.467Z,61.19
2019-06-27T04:59:56.444Z,61.10
2019-06-27T05:01:17.422Z,62.35
2019-06-27T05:01:56.412Z,61.10
2019-06-27T05:02:56.407Z,60.52
2019-06-27T05:03:56.373Z,59.17
2019-06-27T05:04:56.376Z,59.84
2019-06-27T05:05:56.334Z,59.07
2019-06-27T05:07:17.313Z,58.88
2019-06-27T05:07:56.392Z,58.88
2019-06-27T05:08:56.289Z,58.81
2019-06-27T05:09:56.321Z,58.72
2019-06-27T05:10:56.251Z,57.27
2019-06-27T05:11:56.250Z,57.65
2019-06-27T05:13:17.241Z,57.46
2019-06-27T05:13:56.211Z,57.59
2019-06-27T05:14:56.200Z,57.68
2019-06-27T05:15:56.177Z,58.17
2019-06-27T05:16:56.151Z,58.55
2019-06-27T05:17:56.153Z,59.35
2019-06-27T05:19:17.142Z,57.81
2019-06-27T05:19:56.115Z,56.46
2019-06-27T05:20:56.115Z,56.07
2019-06-27T05:21:56.086Z,57.04
2019-06-27T05:22:56.062Z,56.16
2019-06-27T05:23:56.056Z,56.48
2019-06-27T05:25:17.037Z,54.75
2019-06-27T05:25:56.018Z,54.46
2019-06-27T05:26:55.997Z,55.71
2019-06-27T05:27:56.025Z,54.65
2019-06-27T05:28:56.851Z,54.75
2019-06-27T05:30:08.732Z,55.26
2019-06-27T05:31:16.953Z,55.26
2019-06-27T05:31:55.954Z,54.49
2019-06-27T05:32:55.952Z,54.19
2019-06-27T05:33:55.899Z,53.71
2019-06-27T05:34:55.875Z,53.33
2019-06-27T05:35:55.863Z,53.71
2019-06-27T05:37:16.853Z,54.10
2019-06-27T05:37:55.840Z,55.38
2019-06-27T05:38:55.806Z,53.45
2019-06-27T05:39:55.814Z,52.94
2019-06-27T05:40:56.309Z,54.00
2019-06-27T05:41:55.773Z,53.81
2019-06-27T05:43:16.763Z,54.80
2019-06-27T05:43:55.748Z,54.32
2019-06-27T05:44:55.722Z,53.83
2019-06-27T05:45:55.707Z,53.93
2019-06-27T05:46:55.859Z,53.74
2019-06-27T05:47:55.675Z,53.16
2019-06-27T05:49:16.671Z,53.03
2019-06-27T05:49:55.804Z,54.00
2019-06-27T05:50:55.647Z,55.38
2019-06-27T05:51:55.625Z,54.99
2019-06-27T05:52:55.608Z,54.51
2019-06-27T05:53:55.593Z,54.71
2019-06-27T05:55:16.589Z,53.64
2019-06-27T05:55:55.593Z,54.41
2019-06-27T05:56:55.557Z,54.61
2019-06-27T05:57:55.540Z,54.05
2019-06-27T05:58:55.538Z,54.05
2019-06-27T05:59:55.789Z,52.61
2019-06-27T06:01:16.510Z,53.79
2019-06-27T06:01:55.481Z,53.19
2019-06-27T06:02:55.493Z,53.96
2019-06-27T06:03:55.473Z,53.96
2019-06-27T06:04:55.449Z,53.19
2019-06-27T06:05:55.463Z,52.70
2019-06-27T06:07:16.443Z,52.29
2019-06-27T06:07:55.423Z,52.26
2019-06-27T06:08:55.410Z,52.55
2019-06-27T06:09:55.384Z,52.94
2019-06-27T06:10:55.381Z,52.75
2019-06-27T06:11:55.366Z,51.97
2019-06-27T06:13:16.371Z,52.84
2019-06-27T06:13:55.341Z,53.23
2019-06-27T06:14:55.334Z,53.33
2019-06-27T06:15:55.328Z,53.52
2019-06-27T06:16:55.313Z,53.81
2019-06-27T06:17:55.294Z,54.77
2019-06-27T06:19:16.291Z,54.39
2019-06-27T06:19:55.262Z,54.39
2019-06-27T06:20:55.258Z,54.49
2019-06-27T06:21:55.289Z,54.29
2019-06-27T06:22:55.250Z,55.45
2019-06-27T06:23:55.237Z,55.74
2019-06-27T06:25:16.216Z,55.16
2019-06-27T06:25:55.204Z,55.57
2019-06-27T06:26:55.216Z,54.25
2019-06-27T06:27:55.183Z,54.25
2019-06-27T06:28:55.177Z,53.28
2019-06-27T06:29:55.170Z,53.59
2019-06-27T06:31:16.233Z,52.75
2019-06-27T06:31:58.439Z,52.27
2019-06-27T06:32:55.146Z,51.72
2019-06-27T06:33:55.138Z,50.57
2019-06-27T06:34:55.110Z,48.83
2019-06-27T06:35:55.093Z,47.30
2019-06-27T06:37:16.097Z,48.78
2019-06-27T06:37:55.078Z,48.93
2019-06-27T06:38:55.089Z,45.17
2019-06-27T06:39:55.063Z,44.02
2019-06-27T06:40:55.058Z,43.85
2019-06-27T06:41:55.048Z,43.10
2019-06-27T06:43:16.049Z,44.38
2019-06-27T06:43:55.019Z,44.00
2019-06-27T06:44:55.020Z,43.32
2019-06-27T06:45:55.010Z,42.18
2019-06-27T06:46:55.003Z,40.48
2019-06-27T06:47:54.990Z,41.16
2019-06-27T06:49:15.998Z,41.43
2019-06-27T06:49:54.970Z,41.14
2019-06-27T06:50:54.954Z,42.02
2019-06-27T06:51:54.949Z,41.43
2019-06-27T06:52:54.940Z,40.75
2019-06-27T06:53:54.932Z,40.56
2019-06-27T06:55:15.934Z,40.69
2019-06-27T06:55:54.909Z,41.01
2019-06-27T06:56:54.906Z,41.39
2019-06-27T06:57:54.904Z,41.49
2019-06-27T06:58:54.877Z,41.03
2019-06-27T06:59:54.878Z,41.78
2019-06-27T07:01:15.869Z,41.49
2019-06-27T07:01:54.855Z,41.01
2019-06-27T07:02:54.845Z,40.42
2019-06-27T07:03:54.843Z,41.98
2019-06-27T07:04:54.869Z,42.56
2019-06-27T07:05:54.838Z,42.49
2019-06-27T07:07:15.815Z,41.20
2019-06-27T07:07:54.809Z,41.39
2019-06-27T07:08:54.795Z,41.51
2019-06-27T07:09:55.461Z,40.73
2019-06-27T07:10:54.778Z,39.86
2019-06-27T07:11:54.768Z,39.10
2019-06-27T07:13:15.782Z,39.10
2019-06-27T07:13:54.751Z,37.35
2019-06-27T07:14:54.756Z,37.60
2019-06-27T07:15:54.737Z,37.99
2019-06-27T07:16:54.729Z,37.68
2019-06-27T07:17:54.714Z,39.24
2019-06-27T07:19:15.732Z,37.68
2019-06-27T07:19:57.427Z,38.15
2019-06-27T07:20:54.704Z,37.96
2019-06-27T07:21:54.691Z,38.07
2019-06-27T07:22:54.683Z,39.04
2019-06-27T07:23:54.678Z,38.95
2019-06-27T07:25:15.669Z,38.77
2019-06-27T07:25:54.653Z,37.90
2019-06-27T07:26:54.661Z,38.57
2019-06-27T07:27:54.651Z,38.09
2019-06-27T07:28:54.634Z,37.52
2019-06-27T07:29:54.624Z,37.93
2019-06-27T07:31:18.275Z,37.84
2019-06-27T07:31:54.606Z,37.74
2019-06-27T07:32:54.601Z,38.05
2019-06-27T07:33:54.594Z,36.59
2019-06-27T07:34:54.579Z,37.46
2019-06-27T07:35:54.576Z,37.85
2019-06-27T07:37:15.584Z,39.51
2019-06-27T07:37:54.561Z,37.48
2019-06-27T07:38:54.559Z,38.36
2019-06-27T07:39:54.554Z,37.50
2019-06-27T07:40:54.654Z,37.68
2019-06-27T07:41:54.541Z,37.77
2019-06-27T07:43:15.539Z,38.26
2019-06-27T07:43:54.529Z,38.15
2019-06-27T07:44:54.510Z,38.05
2019-06-27T07:45:54.500Z,39.31
2019-06-27T07:46:54.492Z,38.93
2019-06-27T07:47:54.492Z,38.05
2019-06-27T07:49:15.496Z,38.81
2019-06-27T07:49:54.474Z,39.39
2019-06-27T07:50:54.491Z,39.39
2019-06-27T07:51:54.466Z,40.17
2019-06-27T07:52:54.456Z,39.39
2019-06-27T07:53:54.462Z,39.98
2019-06-27T07:55:15.455Z,39.37
2019-06-27T07:55:54.443Z,39.76
2019-06-27T07:56:54.427Z,39.94
2019-06-27T07:57:54.420Z,38.98
2019-06-27T07:58:54.407Z,39.88
2019-06-27T07:59:54.409Z,41.16
2019-06-27T08:01:15.423Z,39.98
2019-06-27T08:01:54.405Z,39.70
2019-06-27T08:02:54.383Z,39.69
2019-06-27T08:03:54.379Z,39.61
2019-06-27T08:04:54.377Z,39.14
2019-06-27T08:05:54.563Z,38.85
2019-06-27T08:07:15.378Z,38.75
2019-06-27T08:07:54.358Z,36.49
2019-06-27T08:08:54.351Z,38.07
2019-06-27T08:09:54.348Z,37.85
2019-06-27T08:10:54.340Z,38.07
2019-06-27T08:11:54.367Z,38.46
2019-06-27T08:13:15.331Z,36.24
2019-06-27T08:13:54.347Z,36.72
2019-06-27T08:14:54.309Z,37.08
2019-06-27T08:15:54.311Z,39.22
2019-06-27T08:16:54.318Z,38.73
2019-06-27T08:17:54.298Z,39.34
2019-06-27T08:19:15.303Z,37.02
2019-06-27T08:19:54.290Z,36.53
2019-06-27T08:20:54.328Z,37.79
2019-06-27T08:21:54.276Z,38.01
2019-06-27T08:22:54.269Z,37.23
2019-06-27T08:23:54.253Z,36.96
2019-06-27T08:25:15.262Z,36.18
2019-06-27T08:25:54.239Z,35.39
2019-06-27T08:26:54.255Z,36.58
2019-06-27T08:27:54.261Z,35.80
2019-06-27T08:28:54.229Z,35.41
2019-06-27T08:29:54.224Z,35.20
2019-06-27T08:31:15.236Z,35.88
2019-06-27T08:31:54.210Z,35.55
2019-06-27T08:32:54.214Z,35.85
2019-06-27T08:33:54.210Z,35.94
2019-06-27T08:34:54.213Z,35.16
2019-06-27T08:35:54.196Z,35.28
2019-06-27T08:37:15.212Z,35.36
2019-06-27T08:37:54.198Z,36.45
2019-06-27T08:38:54.181Z,35.38
2019-06-27T08:39:54.179Z,34.40
2019-06-27T08:40:54.180Z,35.20
2019-06-27T08:41:54.168Z,34.59
2019-06-27T08:43:15.172Z,35.28
2019-06-27T08:43:54.158Z,34.81
2019-06-27T08:44:54.145Z,35.20
2019-06-27T08:45:54.141Z,34.61
2019-06-27T08:46:54.140Z,34.59
2019-06-27T08:47:54.130Z,34.40
2019-06-27T08:49:15.157Z,34.22
2019-06-27T08:49:54.137Z,34.52
2019-06-27T08:50:54.129Z,33.93
2019-06-27T08:51:54.130Z,33.64
2019-06-27T08:52:54.107Z,33.44
2019-06-27T08:53:54.100Z,33.17
2019-06-27T08:55:15.112Z,34.03
2019-06-27T08:55:54.090Z,34.52
2019-06-27T08:56:54.104Z,33.92
2019-06-27T08:57:54.096Z,33.02
2019-06-27T08:58:54.094Z,34.37
2019-06-27T08:59:54.080Z,35.65
2019-06-27T09:01:15.095Z,34.78
2019-06-27T09:02:07.387Z,35.26
2019-06-27T09:02:54.085Z,35.36
2019-06-27T09:03:54.086Z,35.18
2019-06-27T09:04:54.066Z,34.79
2019-06-27T09:05:54.050Z,34.81
2019-06-27T09:07:15.063Z,34.11
2019-06-27T09:07:54.066Z,34.11
2019-06-27T09:08:54.035Z,34.81
2019-06-27T09:09:54.100Z,36.06
2019-06-27T09:10:54.046Z,34.68
2019-06-27T09:11:54.031Z,34.78
2019-06-27T09:13:15.026Z,35.47
2019-06-27T09:13:54.027Z,35.96
2019-06-27T09:14:54.009Z,34.68
2019-06-27T09:15:53.997Z,34.42
2019-06-27T09:16:54.005Z,34.61
2019-06-27T09:17:54.007Z,34.63
2019-06-27T09:19:14.998Z,33.46
2019-06-27T09:19:53.996Z,33.25
2019-06-27T09:20:53.983Z,34.12
2019-06-27T09:21:53.990Z,33.56
2019-06-27T09:22:53.962Z,33.56
2019-06-27T09:23:53.981Z,33.46
2019-06-27T09:25:14.984Z,32.96
2019-06-27T09:25:53.971Z,34.03
2019-06-27T09:26:53.965Z,35.39
2019-06-27T09:27:53.944Z,35.59
2019-06-27T09:28:53.954Z,35.00
2019-06-27T09:29:53.975Z,34.92
2019-06-27T09:31:14.969Z,33.36
2019-06-27T09:31:53.941Z,34.14
2019-06-27T09:32:53.957Z,33.36
2019-06-27T09:33:53.922Z,33.28
2019-06-27T09:34:53.929Z,33.48
2019-06-27T09:35:53.914Z,32.62
2019-06-27T09:37:14.912Z,31.85
2019-06-27T09:37:53.922Z,31.67
2019-06-27T09:38:53.894Z,31.38
2019-06-27T09:39:53.899Z,31.39
2019-06-27T09:40:53.908Z,31.80
2019-06-27T09:41:53.898Z,30.90
2019-06-27T09:43:14.905Z,31.77
2019-06-27T09:43:53.918Z,32.04
2019-06-27T09:44:53.886Z,32.03
2019-06-27T09:45:53.872Z,31.41
2019-06-27T09:46:53.870Z,32.99
2019-06-27T09:47:53.867Z,31.43
2019-06-27T09:49:14.879Z,32.31
2019-06-27T09:49:53.866Z,31.52
2019-06-27T09:50:53.868Z,33.26
2019-06-27T09:51:53.859Z,32.97
2019-06-27T09:52:53.845Z,33.18
2019-06-27T09:53:53.858Z,33.38
2019-06-27T09:55:14.877Z,31.23
2019-06-27T09:55:53.842Z,31.80
2019-06-27T09:56:53.856Z,32.31
2019-06-27T09:57:53.839Z,32.89
2019-06-27T09:58:53.854Z,33.38
2019-06-27T09:59:53.834Z,34.26
2019-06-27T10:01:14.824Z,33.18
2019-06-27T10:01:53.820Z,33.17
2019-06-27T10:02:53.826Z,34.53
2019-06-27T10:03:53.816Z,34.06
2019-06-27T10:04:53.809Z,33.18
2019-06-27T10:05:53.813Z,34.84
2019-06-27T10:07:14.808Z,33.40
2019-06-27T10:07:53.823Z,33.79
2019-06-27T10:08:53.793Z,34.08
2019-06-27T10:09:53.789Z,33.89
2019-06-27T10:10:53.783Z,34.19
2019-06-27T10:11:53.786Z,33.62
2019-06-27T10:13:14.791Z,30.98
2019-06-27T10:13:53.773Z,30.29
2019-06-27T10:14:53.797Z,31.36
2019-06-27T10:15:53.835Z,32.53
2019-06-27T10:16:53.775Z,31.95
2019-06-27T10:17:53.757Z,31.95
2019-06-27T10:19:14.785Z,30.77
2019-06-27T10:19:53.759Z,31.87
2019-06-27T10:20:53.754Z,30.10
2019-06-27T10:21:53.750Z,30.88
2019-06-27T10:22:53.748Z,30.52
2019-06-27T10:23:53.752Z,28.86
2019-06-27T10:25:14.735Z,29.46
2019-06-27T10:25:53.750Z,28.92
2019-06-27T10:26:53.735Z,29.39
2019-06-27T10:27:53.729Z,30.86
2019-06-27T10:28:53.743Z,30.84
2019-06-27T10:29:53.730Z,31.84
2019-06-27T10:31:14.728Z,31.54
2019-06-27T10:31:53.713Z,31.36
2019-06-27T10:32:59.305Z,30.77
2019-06-27T10:33:53.706Z,31.36
2019-06-27T10:34:53.715Z,30.77
2019-06-27T10:35:53.700Z,31.36
2019-06-27T10:37:14.701Z,31.46
2019-06-27T10:37:53.695Z,30.09
2019-06-27T10:38:53.690Z,29.42
2019-06-27T10:39:53.679Z,29.73
2019-06-27T10:40:53.679Z,28.18
2019-06-27T10:41:53.682Z,27.61
2019-06-27T10:43:14.681Z,26.93
2019-06-27T10:43:53.670Z,28.11
2019-06-27T10:44:53.687Z,28.11
2019-06-27T10:45:53.665Z,28.11
2019-06-27T10:46:53.680Z,26.90
2019-06-27T10:47:53.674Z,26.29
2019-06-27T10:49:14.670Z,28.36
2019-06-27T10:49:53.668Z,26.98
2019-06-27T10:50:54.777Z,27.37
2019-06-27T10:51:53.657Z,27.26
2019-06-27T10:52:53.656Z,27.95
2019-06-27T10:53:53.652Z,29.03
2019-06-27T10:55:14.658Z,29.02
2019-06-27T10:55:53.660Z,28.44
2019-06-27T10:56:53.659Z,28.34
2019-06-27T10:57:53.633Z,26.88
2019-06-27T10:58:53.628Z,25.89
2019-06-27T10:59:53.625Z,25.40
2019-06-27T11:01:14.634Z,26.68
2019-06-27T11:01:53.619Z,25.43
2019-06-27T11:02:53.604Z,22.50
2019-06-27T11:03:53.608Z,23.47
2019-06-27T11:04:53.596Z,23.26
2019-06-27T11:05:53.647Z,25.22
2019-06-27T11:07:14.620Z,26.60
2019-06-27T11:07:53.602Z,25.83
2019-06-27T11:08:53.596Z,27.31
2019-06-27T11:09:53.600Z,26.55
2019-06-27T11:10:53.595Z,24.87
2019-06-27T11:11:53.577Z,24.19
2019-06-27T11:13:14.580Z,24.10
2019-06-27T11:13:58.910Z,23.91
2019-06-27T11:14:59.331Z,25.49
2019-06-27T11:15:53.583Z,24.62
2019-06-27T11:16:53.578Z,23.24
2019-06-27T11:17:53.589Z,25.61
2019-06-27T11:19:14.580Z,25.23
2019-06-27T11:19:53.557Z,23.49
2019-06-27T11:20:53.567Z,21.70
2019-06-27T11:21:53.583Z,24.64
2019-06-27T11:22:53.565Z,22.88
2019-06-27T11:23:53.570Z,24.36
2019-06-27T11:25:14.551Z,24.36
2019-06-27T11:25:53.550Z,22.99
2019-06-27T11:26:53.543Z,23.29
2019-06-27T11:27:53.536Z,22.99
2019-06-27T11:28:53.536Z,24.66
2019-06-27T11:29:53.542Z,22.89
2019-06-27T11:31:14.529Z,21.30
2019-06-27T11:31:53.536Z,20.41
2019-06-27T11:32:53.534Z,21.66
2019-06-27T11:33:53.514Z,22.64
2019-06-27T11:34:53.520Z,23.14
2019-06-27T11:35:53.507Z,22.45
2019-06-27T11:37:14.531Z,23.54
2019-06-27T11:37:53.518Z,23.84
2019-06-27T11:38:53.513Z,22.67
2019-06-27T11:39:53.515Z,21.59
2019-06-27T11:40:53.491Z,22.19
2019-06-27T11:41:53.489Z,22.49
2019-06-27T11:43:14.495Z,21.61
2019-06-27T11:43:53.493Z,22.30
2019-06-27T11:44:53.488Z,21.22
2019-06-27T11:45:53.484Z,22.10
2019-06-27T11:46:53.474Z,19.73
2019-06-27T11:47:53.474Z,20.43
2019-06-27T11:49:14.479Z,20.69
2019-06-27T11:49:53.468Z,21.19
2019-06-27T11:50:53.462Z,20.47
2019-06-27T11:51:53.481Z,21.64
2019-06-27T11:52:53.451Z,20.56
2019-06-27T11:53:53.476Z,20.84
2019-06-27T11:55:14.475Z,21.72
2019-06-27T11:55:53.449Z,22.21
2019-06-27T11:56:53.581Z,22.42
2019-06-27T11:57:56.500Z,20.77
2019-06-27T11:58:53.453Z,18.80
2019-06-27T11:59:53.446Z,19.89
2019-06-27T12:01:14.453Z,19.02
2019-06-27T12:01:53.425Z,19.68
2019-06-27T12:02:53.433Z,19.09
2019-06-27T12:03:53.438Z,18.88
2019-06-27T12:04:53.421Z,20.17
2019-06-27T12:05:53.434Z,19.00
2019-06-27T12:07:14.425Z,18.62
2019-06-27T12:07:53.517Z,18.81
2019-06-27T12:08:53.416Z,19.39
2019-06-27T12:09:53.414Z,18.71
2019-06-27T12:10:53.407Z,19.21
2019-06-27T12:11:53.402Z,21.19
2019-06-27T12:13:14.403Z,20.01
2019-06-27T12:13:53.404Z,20.91
2019-06-27T12:14:53.395Z,20.12
2019-06-27T12:15:53.397Z,19.04
2019-06-27T12:16:53.388Z,16.88
2019-06-27T12:17:53.401Z,15.87
2019-06-27T12:19:14.393Z,18.03
2019-06-27T12:19:53.374Z,19.01
2019-06-27T12:20:53.386Z,15.96
2019-06-27T12:21:53.375Z,15.97
2019-06-27T12:22:53.366Z,16.08
2019-06-27T12:23:53.378Z,17.17
2019-06-27T12:25:14.376Z,17.08
2019-06-27T12:25:53.350Z,16.21
2019-06-27T12:26:53.371Z,15.53
2019-06-27T12:27:53.358Z,14.84
2019-06-27T12:28:53.347Z,14.45
2019-06-27T12:29:53.342Z,14.56
2019-06-27T12:31:20.310Z,15.42
2019-06-27T12:31:53.334Z,17.68
2019-06-27T12:32:53.335Z,17.46
2019-06-27T12:34:06.384Z,17.07
2019-06-27T12:34:53.398Z,15.89
2019-06-27T12:35:53.330Z,16.08
2019-06-27T12:37:14.327Z,16.66
2019-06-27T12:37:53.323Z,16.76
2019-06-27T12:38:53.318Z,16.56
2019-06-27T12:39:53.348Z,17.82
2019-06-27T12:40:53.308Z,17.83
2019-06-27T12:41:53.300Z,16.56
2019-06-27T12:43:14.657Z,16.97
2019-06-27T12:43:53.316Z,16.20
2019-06-27T12:44:53.314Z,14.84
2019-06-27T12:45:53.290Z,16.71
2019-06-27T12:46:53.295Z,16.03
2019-06-27T12:47:53.427Z,15.84
2019-06-27T12:49:14.299Z,16.52
2019-06-27T12:50:02.082Z,13.48
2019-06-27T12:50:53.271Z,14.04
2019-06-27T12:51:53.266Z,14.03